Time;durP1;ratioP1;P1;durP2;ratioP2;P2;SDS_P1;SDS_P2;PMS_P1;PMS_P2;Temp;Humidity;BMP_temperature;BMP_pressure;BME280_temperature;BME280_humidity;BME280_pressure;Samples;Min_cycle;Max_cycle;Signal;HPM_P1;HPM_P2
2021/12/03 00:01:14;;;;;;;;;25.00;22.50;;;;;;;;5035676;28;45273;-83
2021/12/03 00:03:39;;;;;;;;;21.75;19.25;;;;;;;;5038401;28;45360;-81
2021/12/03 00:06:05;;;;;;;;;25.50;23.75;;;;;;;;5037975;28;45372;-81
2021/12/03 00:08:30;;;;;;;;;25.75;21.00;;;;;;;;5035388;28;46296;-79
2021/12/03 00:11:00;;;;;;;;;20.75;18.50;;;;;;;;5035073;28;45522;-81
2021/12/03 00:13:26;;;;;;;;;20.25;19.25;;;;;;;;5035906;28;45474;-82
2021/12/03 00:15:54;;;;;;;;;28.50;23.75;;;;;;;;5035139;28;45524;-83
2021/12/03 00:18:19;;;;;;;;;20.75;20.25;;;;;;;;5037874;28;46179;-82
2021/12/03 00:20:44;;;;;;;;;25.00;25.00;;;;;;;;5036913;28;45418;-83
2021/12/03 00:23:09;;;;;;;;;22.75;18.50;;;;;;;;5036128;28;45429;-83
2021/12/03 00:25:35;;;;;;;;;21.00;20.25;;;;;;;;5037203;28;45335;-83
2021/12/03 00:28:00;;;;;;;;;24.00;22.25;;;;;;;;5035818;28;45581;-84
2021/12/03 00:30:26;;;;;;;;;21.00;20.75;;;;;;;;5036126;28;45393;-83
2021/12/03 00:32:51;;;;;;;;;21.25;21.00;;;;;;;;5035765;28;45446;-83
2021/12/03 00:35:17;;;;;;;;;30.00;23.75;;;;;;;;5045442;28;45434;-82
2021/12/03 00:37:43;;;;;;;;;23.75;21.50;;;;;;;;5035272;28;46447;-83
2021/12/03 00:40:12;;;;;;;;;27.00;22.50;;;;;;;;5035264;28;45370;-83
2021/12/03 00:42:39;;;;;;;;;21.25;21.25;;;;;;;;5035785;28;45416;-83
2021/12/03 00:45:05;;;;;;;;;22.25;22.25;;;;;;;;5039579;28;45685;-83
2021/12/03 00:47:30;;;;;;;;;26.25;22.00;;;;;;;;5034067;28;46945;-82
2021/12/03 00:49:55;;;;;;;;;24.75;24.50;;;;;;;;5035111;28;45632;-82
2021/12/03 00:52:21;;;;;;;;;24.75;19.75;;;;;;;;5035234;28;45392;-83
2021/12/03 00:54:46;;;;;;;;;31.00;27.75;;;;;;;;5036967;28;45502;-82
2021/12/03 00:57:11;;;;;;;;;29.00;27.00;;;;;;;;5037743;28;47253;-82
2021/12/03 00:59:37;;;;;;;;;26.00;23.25;;;;;;;;5036937;28;45361;-82
2021/12/03 01:02:02;;;;;;;;;27.50;23.75;;;;;;;;5037406;28;45585;-82
2021/12/03 01:04:27;;;;;;;;;22.75;22.25;;;;;;;;5037360;28;45366;-82
2021/12/03 01:06:52;;;;;;;;;24.50;23.75;;;;;;;;5038116;28;46598;-82
2021/12/03 01:09:18;;;;;;;;;29.25;26.75;;;;;;;;5037953;28;45458;-82
2021/12/03 01:11:43;;;;;;;;;26.50;22.25;;;;;;;;5037436;28;45340;-81
2021/12/03 01:14:09;;;;;;;;;28.50;22.75;;;;;;;;5037067;28;45551;-81
2021/12/03 01:16:34;;;;;;;;;27.50;24.00;;;;;;;;5037745;28;46456;-81
2021/12/03 01:19:00;;;;;;;;;22.75;21.25;;;;;;;;5038804;28;45429;-81
2021/12/03 01:21:25;;;;;;;;;25.25;23.25;;;;;;;;5039964;28;45426;-82
2021/12/03 01:23:51;;;;;;;;;29.25;25.50;;;;;;;;5037403;28;45377;-83
2021/12/03 01:26:17;;;;;;;;;23.50;21.25;;;;;;;;5037673;28;45447;-80
2021/12/03 01:28:42;;;;;;;;;27.00;24.25;;;;;;;;5037559;28;45528;-81
2021/12/03 01:31:08;;;;;;;;;22.00;19.75;;;;;;;;5037466;28;45366;-81
2021/12/03 01:33:33;;;;;;;;;25.50;24.00;;;;;;;;5037610;28;45620;-81
2021/12/03 01:35:59;;;;;;;;;19.00;18.75;;;;;;;;5036687;28;46302;-82
2021/12/03 01:38:24;;;;;;;;;28.00;19.25;;;;;;;;5036734;28;45359;-82
2021/12/03 01:40:50;;;;;;;;;22.00;19.00;;;;;;;;5037036;28;45373;-82
2021/12/03 01:43:22;;;;;;;;;19.00;16.00;;;;;;;;5036964;28;45365;-83
2021/12/03 01:45:50;;;;;;;;;47.00;40.75;;;;;;;;5037219;28;45434;-82
2021/12/03 01:48:15;;;;;;;;;21.00;21.00;;;;;;;;5036728;28;45476;-82
2021/12/03 01:50:42;;;;;;;;;19.50;18.25;;;;;;;;5037648;28;45340;-82
2021/12/03 01:53:08;;;;;;;;;17.50;17.50;;;;;;;;5037143;28;45661;-83
2021/12/03 01:55:33;;;;;;;;;22.00;20.75;;;;;;;;5037334;28;46299;-82
2021/12/03 01:57:59;;;;;;;;;24.75;22.25;;;;;;;;5036997;28;45449;-82
2021/12/03 02:00:26;;;;;;;;;25.00;24.75;;;;;;;;5037638;28;45371;-82
2021/12/03 02:02:51;;;;;;;;;32.00;29.50;;;;;;;;5036335;28;45463;-82
2021/12/03 02:05:17;;;;;;;;;31.50;25.75;;;;;;;;5035241;28;46370;-82
2021/12/03 02:07:43;;;;;;;;;42.00;32.25;;;;;;;;5036368;28;45476;-83
2021/12/03 02:10:08;;;;;;;;;38.00;32.50;;;;;;;;5036429;28;45461;-83
2021/12/03 02:12:33;;;;;;;;;35.00;30.25;;;;;;;;5036632;28;45380;-83
2021/12/03 02:14:59;;;;;;;;;43.25;37.50;;;;;;;;5036152;28;46628;-80
2021/12/03 02:17:24;;;;;;;;;32.75;23.25;;;;;;;;5036767;28;45508;-83
2021/12/03 02:19:50;;;;;;;;;31.25;28.75;;;;;;;;5037058;28;45545;-82
2021/12/03 02:22:15;;;;;;;;;42.25;33.25;;;;;;;;5036726;28;45480;-82
2021/12/03 02:24:40;;;;;;;;;32.75;26.75;;;;;;;;5037597;28;45517;-82
2021/12/03 02:27:06;;;;;;;;;39.50;35.00;;;;;;;;5036222;28;45402;-82
2021/12/03 02:29:31;;;;;;;;;36.75;31.50;;;;;;;;5036505;28;45514;-82
2021/12/03 02:31:56;;;;;;;;;33.50;27.00;;;;;;;;5036530;28;45318;-82
2021/12/03 02:34:21;;;;;;;;;37.25;28.25;;;;;;;;5036316;28;47164;-82
2021/12/03 02:36:47;;;;;;;;;33.25;30.00;;;;;;;;5037118;28;45318;-82
2021/12/03 02:39:12;;;;;;;;;24.25;22.00;;;;;;;;5036887;28;45414;-81
2021/12/03 02:41:37;;;;;;;;;29.50;25.25;;;;;;;;5036004;28;45332;-81
2021/12/03 02:44:03;;;;;;;;;34.75;27.50;;;;;;;;5036456;28;47535;-82
2021/12/03 02:46:28;;;;;;;;;25.75;22.25;;;;;;;;5036496;28;45484;-82
2021/12/03 02:48:53;;;;;;;;;16.50;16.50;;;;;;;;5036142;28;45244;-79
2021/12/03 02:51:18;;;;;;;;;11.00;11.00;;;;;;;;5036940;28;45507;-82
2021/12/03 02:53:44;;;;;;;;;14.00;13.50;;;;;;;;5036329;28;45386;-81
2021/12/03 02:56:09;;;;;;;;;17.75;13.25;;;;;;;;5036108;28;45405;-82
2021/12/03 02:58:34;;;;;;;;;17.00;13.50;;;;;;;;5036520;28;45496;-82
2021/12/03 03:01:00;;;;;;;;;11.00;8.25;;;;;;;;5036168;28;45375;-82
2021/12/03 03:03:26;;;;;;;;;15.00;11.50;;;;;;;;5036180;28;45864;-82
2021/12/03 03:05:54;;;;;;;;;14.00;11.00;;;;;;;;5035305;28;45463;-82
2021/12/03 03:08:19;;;;;;;;;11.00;9.00;;;;;;;;5035062;28;45419;-80
2021/12/03 03:10:44;;;;;;;;;10.25;7.00;;;;;;;;5035398;28;45564;-82
2021/12/03 03:13:10;;;;;;;;;11.50;9.75;;;;;;;;5035504;28;45586;-82
2021/12/03 03:15:39;;;;;;;;;7.50;7.50;;;;;;;;5035954;28;45375;-81
2021/12/03 03:18:23;;;;;;;;;7.00;7.00;;;;;;;;5035745;28;45456;-82
2021/12/03 03:20:50;;;;;;;;;10.00;10.00;;;;;;;;5035255;28;45484;-83
2021/12/03 03:23:16;;;;;;;;;9.75;8.00;;;;;;;;5034874;28;45497;-82
2021/12/03 03:25:41;;;;;;;;;11.50;8.00;;;;;;;;5035289;28;45393;-83
2021/12/03 03:28:07;;;;;;;;;8.50;8.50;;;;;;;;5035589;28;45481;-81
2021/12/03 03:30:33;;;;;;;;;10.75;10.75;;;;;;;;5035868;28;45145;-82
2021/12/03 03:32:58;;;;;;;;;8.00;7.00;;;;;;;;5035822;28;47136;-83
2021/12/03 03:35:24;;;;;;;;;10.75;9.00;;;;;;;;5035798;28;45489;-82
2021/12/03 03:37:49;;;;;;;;;9.50;8.75;;;;;;;;5035572;28;45546;-82
2021/12/03 03:40:15;;;;;;;;;10.50;10.00;;;;;;;;5034865;28;45485;-82
2021/12/03 03:42:40;;;;;;;;;12.75;9.75;;;;;;;;5036501;28;46336;-82
2021/12/03 03:45:07;;;;;;;;;10.50;9.00;;;;;;;;5035313;28;45394;-82
2021/12/03 03:47:33;;;;;;;;;8.00;7.00;;;;;;;;5035885;28;45343;-82
2021/12/03 03:49:58;;;;;;;;;13.25;13.00;;;;;;;;5038646;28;45478;-82
2021/12/03 03:52:24;;;;;;;;;12.00;9.75;;;;;;;;5035262;28;47278;-82
2021/12/03 03:54:49;;;;;;;;;12.50;10.00;;;;;;;;5035603;28;45376;-82
2021/12/03 03:57:14;;;;;;;;;12.75;11.50;;;;;;;;5035733;28;45247;-82
2021/12/03 03:59:39;;;;;;;;;9.50;9.50;;;;;;;;5042466;28;45444;-81
2021/12/03 04:02:04;;;;;;;;;8.00;8.00;;;;;;;;5051389;28;45436;-80
2021/12/03 04:04:31;;;;;;;;;13.50;8.00;;;;;;;;5038102;28;45356;-82
2021/12/03 04:06:56;;;;;;;;;11.50;8.00;;;;;;;;5035618;28;45382;-83
2021/12/03 04:09:22;;;;;;;;;8.00;8.00;;;;;;;;5035829;28;45391;-81
2021/12/03 04:11:47;;;;;;;;;11.00;8.50;;;;;;;;5034698;28;46384;-82
2021/12/03 04:14:12;;;;;;;;;9.50;9.50;;;;;;;;5033600;28;45298;-82
2021/12/03 04:16:37;;;;;;;;;8.00;8.00;;;;;;;;5034607;28;45402;-82
2021/12/03 04:19:03;;;;;;;;;9.75;9.00;;;;;;;;5034225;28;45350;-82
2021/12/03 04:21:28;;;;;;;;;2.00;1.25;;;;;;;;5034601;28;46729;-82
2021/12/03 04:23:53;;;;;;;;;11.25;9.50;;;;;;;;5034198;28;45618;-82
2021/12/03 04:26:19;;;;;;;;;11.50;7.50;;;;;;;;5034315;28;45459;-82
2021/12/03 04:28:45;;;;;;;;;7.75;7.00;;;;;;;;5037379;28;45553;-83
2021/12/03 04:31:10;;;;;;;;;8.25;8.25;;;;;;;;5037814;28;46245;-83
2021/12/03 04:33:35;;;;;;;;;8.00;7.25;;;;;;;;5038951;28;45393;-82
2021/12/03 04:36:01;;;;;;;;;12.00;10.00;;;;;;;;5037822;28;45616;-82
2021/12/03 04:38:26;;;;;;;;;8.00;8.00;;;;;;;;5037846;28;46548;-81
2021/12/03 04:40:51;;;;;;;;;9.00;8.00;;;;;;;;5037700;28;46590;-82
2021/12/03 04:43:16;;;;;;;;;10.50;8.00;;;;;;;;5037369;28;45584;-80
2021/12/03 04:45:41;;;;;;;;;13.00;9.00;;;;;;;;5038267;28;45361;-81
2021/12/03 04:48:07;;;;;;;;;12.50;7.50;;;;;;;;5038042;28;45407;-82
2021/12/03 04:50:35;;;;;;;;;8.50;6.75;;;;;;;;5037683;28;45588;-83
2021/12/03 04:53:01;;;;;;;;;6.00;6.00;;;;;;;;5038409;28;45304;-81
2021/12/03 04:55:26;;;;;;;;;9.25;8.25;;;;;;;;5038261;28;45378;-83
2021/12/03 04:57:55;;;;;;;;;9.75;9.00;;;;;;;;5038716;28;45515;-82
2021/12/03 05:00:25;;;;;;;;;11.00;10.50;;;;;;;;5040259;28;46024;-83
2021/12/03 05:02:52;;;;;;;;;8.25;8.25;;;;;;;;5044020;28;45350;-82
2021/12/03 05:05:17;;;;;;;;;10.75;9.00;;;;;;;;5041332;28;45343;-82
2021/12/03 05:07:57;;;;;;;;;9.00;8.75;;;;;;;;5037758;28;45349;-82
2021/12/03 05:10:22;;;;;;;;;6.50;6.50;;;;;;;;5022671;28;47194;-82
2021/12/03 05:12:47;;;;;;;;;7.75;7.00;;;;;;;;5037532;28;45395;-82
2021/12/03 05:15:13;;;;;;;;;3.25;3.25;;;;;;;;5037684;28;45418;-82
2021/12/03 05:17:38;;;;;;;;;5.00;5.00;;;;;;;;5037628;28;45516;-81
2021/12/03 05:20:03;;;;;;;;;8.00;7.00;;;;;;;;5036419;28;45465;-82
2021/12/03 05:22:28;;;;;;;;;7.25;5.50;;;;;;;;5036791;28;45439;-81
2021/12/03 05:24:54;;;;;;;;;7.50;7.00;;;;;;;;5037302;28;45419;-82
2021/12/03 05:27:20;;;;;;;;;10.75;9.00;;;;;;;;5037030;28;45393;-82
2021/12/03 05:29:46;;;;;;;;;10.00;6.00;;;;;;;;5036458;28;47210;-82
2021/12/03 05:32:11;;;;;;;;;6.50;4.75;;;;;;;;5036832;28;45316;-82
2021/12/03 05:34:38;;;;;;;;;5.75;3.75;;;;;;;;5036837;28;45396;-82
2021/12/03 05:37:04;;;;;;;;;3.00;1.50;;;;;;;;5037476;28;45368;-82
2021/12/03 05:39:29;;;;;;;;;6.25;6.25;;;;;;;;5036948;28;47046;-81
2021/12/03 05:41:54;;;;;;;;;6.50;4.50;;;;;;;;5036985;28;45464;-81
2021/12/03 05:44:19;;;;;;;;;6.75;6.50;;;;;;;;5037396;28;45563;-82
2021/12/03 05:46:44;;;;;;;;;8.00;7.00;;;;;;;;5037502;28;45552;-81
2021/12/03 05:49:10;;;;;;;;;5.50;3.00;;;;;;;;5036460;28;46250;-83
2021/12/03 05:51:35;;;;;;;;;3.00;3.00;;;;;;;;5037367;28;45875;-83
2021/12/03 05:54:01;;;;;;;;;1.75;1.75;;;;;;;;5036667;28;45267;-83
2021/12/03 05:56:26;;;;;;;;;6.25;3.25;;;;;;;;5036859;28;45590;-84
2021/12/03 05:58:51;;;;;;;;;7.00;6.00;;;;;;;;5036185;28;47206;-83
2021/12/03 06:01:17;;;;;;;;;9.00;5.50;;;;;;;;5035898;28;45312;-82
2021/12/03 06:03:42;;;;;;;;;6.25;4.25;;;;;;;;5037954;28;45285;-81
2021/12/03 06:06:07;;;;;;;;;3.75;3.75;;;;;;;;5038171;28;45713;-83
2021/12/03 06:08:33;;;;;;;;;7.75;3.50;;;;;;;;5037355;28;45481;-82
2021/12/03 06:10:58;;;;;;;;;3.25;3.25;;;;;;;;5036838;28;45661;-82
2021/12/03 06:13:23;;;;;;;;;3.50;3.50;;;;;;;;5036524;28;45593;-82
2021/12/03 06:15:48;;;;;;;;;7.25;3.75;;;;;;;;5036720;28;45335;-82
2021/12/03 06:18:13;;;;;;;;;2.75;2.25;;;;;;;;5036731;28;46739;-82
2021/12/03 06:20:39;;;;;;;;;3.75;3.75;;;;;;;;5035154;28;45753;-82
2021/12/03 06:23:04;;;;;;;;;6.75;5.50;;;;;;;;5037048;28;45375;-84
2021/12/03 06:25:29;;;;;;;;;7.00;4.00;;;;;;;;5036877;28;45375;-81
2021/12/03 06:27:57;;;;;;;;;5.50;5.50;;;;;;;;5036540;28;46091;-82
2021/12/03 06:30:24;;;;;;;;;4.00;4.00;;;;;;;;5037322;28;45352;-80
2021/12/03 06:32:50;;;;;;;;;6.00;3.25;;;;;;;;5035387;28;45288;-83
2021/12/03 06:35:16;;;;;;;;;6.75;6.00;;;;;;;;5035653;28;45318;-82
2021/12/03 06:37:42;;;;;;;;;3.75;3.75;;;;;;;;5034960;28;45961;-83
2021/12/03 06:40:09;;;;;;;;;5.50;4.00;;;;;;;;5037736;28;45917;-82
2021/12/03 06:42:34;;;;;;;;;3.75;3.75;;;;;;;;5038452;28;45543;-82
2021/12/03 06:45:03;;;;;;;;;4.25;3.00;;;;;;;;5036354;28;45421;-83
2021/12/03 06:47:28;;;;;;;;;6.50;5.00;;;;;;;;5036096;28;45427;-83
2021/12/03 06:49:53;;;;;;;;;4.00;4.00;;;;;;;;5036751;28;45543;-83
2021/12/03 06:52:18;;;;;;;;;3.00;3.00;;;;;;;;5037816;28;49808;-82
2021/12/03 06:54:51;;;;;;;;;6.75;3.00;;;;;;;;5037217;28;45249;-85
2021/12/03 06:57:16;;;;;;;;;5.25;4.00;;;;;;;;5050282;28;45464;-85
2021/12/03 06:59:42;;;;;;;;;3.50;3.00;;;;;;;;5040662;28;45416;-84
2021/12/03 07:02:07;;;;;;;;;3.00;2.25;;;;;;;;5037949;28;45356;-83
2021/12/03 07:04:32;;;;;;;;;3.00;3.00;;;;;;;;5037240;28;45421;-85
2021/12/03 07:06:57;;;;;;;;;3.75;3.75;;;;;;;;5037133;28;45355;-87
2021/12/03 07:09:22;;;;;;;;;6.00;3.75;;;;;;;;5040890;28;45513;-87
2021/12/03 07:11:48;;;;;;;;;7.25;4.00;;;;;;;;5038771;28;45517;-87
2021/12/03 07:14:13;;;;;;;;;6.25;4.00;;;;;;;;5040099;28;45265;-87
2021/12/03 07:16:39;;;;;;;;;7.50;3.00;;;;;;;;5036913;28;47226;-86
2021/12/03 07:19:04;;;;;;;;;7.50;7.50;;;;;;;;5043944;28;45204;-88
2021/12/03 07:21:30;;;;;;;;;2.00;0.75;;;;;;;;5040648;28;45319;-85
2021/12/03 07:23:55;;;;;;;;;4.25;3.00;;;;;;;;5036496;28;45474;-83
2021/12/03 07:26:22;;;;;;;;;6.00;4.00;;;;;;;;5039480;28;46247;-85
2021/12/03 07:28:47;;;;;;;;;3.75;3.75;;;;;;;;5042096;28;45510;-83
2021/12/03 07:31:13;;;;;;;;;3.00;2.00;;;;;;;;5042443;28;45285;-87
2021/12/03 07:33:39;;;;;;;;;7.00;3.50;;;;;;;;5038583;28;45330;-85
2021/12/03 07:36:07;;;;;;;;;6.75;3.50;;;;;;;;5036275;28;47087;-83
2021/12/03 07:38:34;;;;;;;;;3.25;2.00;;;;;;;;5036552;28;45350;-82
2021/12/03 07:40:59;;;;;;;;;4.00;2.00;;;;;;;;5034125;28;45352;-82
2021/12/03 07:43:24;;;;;;;;;2.25;2.25;;;;;;;;5035393;28;45604;-82
2021/12/03 07:45:50;;;;;;;;;6.50;6.00;;;;;;;;5037376;28;46362;-82
2021/12/03 07:48:15;;;;;;;;;5.50;4.00;;;;;;;;5035074;28;45322;-84
2021/12/03 07:50:41;;;;;;;;;3.00;2.75;;;;;;;;5036689;28;45994;-83
2021/12/03 07:53:07;;;;;;;;;2.50;2.50;;;;;;;;5037893;28;45493;-83
2021/12/03 07:55:33;;;;;;;;;2.00;1.00;;;;;;;;5049907;28;47353;-84
2021/12/03 07:57:58;;;;;;;;;4.50;3.00;;;;;;;;5048370;28;45384;-83
2021/12/03 08:00:24;;;;;;;;;2.00;2.00;;;;;;;;5043331;28;44807;-83
2021/12/03 08:02:49;;;;;;;;;2.00;2.00;;;;;;;;5036608;28;45418;-83
2021/12/03 08:05:14;;;;;;;;;7.25;2.75;;;;;;;;5032322;28;45592;-82
2021/12/03 08:07:40;;;;;;;;;2.00;1.00;;;;;;;;5035110;28;45256;-83
2021/12/03 08:10:06;;;;;;;;;4.25;2.25;;;;;;;;5036946;28;45448;-85
2021/12/03 08:12:31;;;;;;;;;6.00;4.00;;;;;;;;5040232;28;45588;-84
2021/12/03 08:14:57;;;;;;;;;9.75;3.00;;;;;;;;5038517;28;46529;-85
2021/12/03 08:17:22;;;;;;;;;7.00;5.50;;;;;;;;5037781;28;45302;-85
2021/12/03 08:19:47;;;;;;;;;6.50;4.75;;;;;;;;5043363;28;45164;-86
2021/12/03 08:22:12;;;;;;;;;7.75;6.00;;;;;;;;5044601;28;45417;-85
2021/12/03 08:24:38;;;;;;;;;3.50;3.50;;;;;;;;5037955;28;46772;-84
2021/12/03 08:27:03;;;;;;;;;6.00;4.00;;;;;;;;5036061;28;45211;-86
2021/12/03 08:29:28;;;;;;;;;7.00;5.25;;;;;;;;5036168;28;45499;-84
2021/12/03 08:31:53;;;;;;;;;6.50;6.00;;;;;;;;5036456;28;45418;-85
2021/12/03 08:34:19;;;;;;;;;4.25;3.25;;;;;;;;5037759;28;45478;-85
2021/12/03 08:36:44;;;;;;;;;3.00;3.00;;;;;;;;5038752;28;45299;-84
2021/12/03 08:39:09;;;;;;;;;3.00;3.00;;;;;;;;5039087;28;45449;-85
2021/12/03 08:41:35;;;;;;;;;8.50;3.75;;;;;;;;5040614;28;45340;-84
2021/12/03 08:44:02;;;;;;;;;3.75;2.75;;;;;;;;5036700;28;45535;-84
2021/12/03 08:46:31;;;;;;;;;3.25;3.00;;;;;;;;5038567;28;45276;-84
2021/12/03 08:49:07;;;;;;;;;5.00;3.00;;;;;;;;5037079;28;45377;-85
2021/12/03 08:57:17;;;;;;;;;5.75;5.75;;;;;;;;5003230;28;45317;-85
2021/12/03 08:59:42;;;;;;;;;4.75;1.75;;;;;;;;5010703;28;45282;-85
2021/12/03 09:02:07;;;;;;;;;4.00;3.75;;;;;;;;4999257;28;46625;-85
2021/12/03 09:04:32;;;;;;;;;5.25;5.25;;;;;;;;4995222;28;46633;-86
2021/12/03 09:06:58;;;;;;;;;6.75;4.00;;;;;;;;4983581;28;45509;-86
2021/12/03 09:09:24;;;;;;;;;7.00;7.00;;;;;;;;5006598;28;45377;-86
2021/12/03 09:11:49;;;;;;;;;3.50;3.50;;;;;;;;5008532;28;45565;-87
2021/12/03 09:14:20;;;;;;;;;6.00;3.00;;;;;;;;5017532;28;46129;-86
2021/12/03 09:16:50;;;;;;;;;4.50;3.00;;;;;;;;5017979;28;45313;-86
2021/12/03 09:19:21;;;;;;;;;7.50;6.75;;;;;;;;5013799;28;44832;-86
2021/12/03 09:21:47;;;;;;;;;4.00;3.00;;;;;;;;5017279;28;45378;-85
2021/12/03 09:24:15;;;;;;;;;6.00;6.00;;;;;;;;5013931;28;44933;-84
2021/12/03 09:26:42;;;;;;;;;3.00;3.00;;;;;;;;5002685;28;45449;-84
2021/12/03 09:29:10;;;;;;;;;10.25;7.25;;;;;;;;5054525;28;44876;-85
2021/12/03 09:31:37;;;;;;;;;6.25;4.00;;;;;;;;5053880;28;45515;-85
2021/12/03 09:34:09;;;;;;;;;3.50;3.50;;;;;;;;5049996;28;46180;-86
2021/12/03 09:36:36;;;;;;;;;6.50;6.50;;;;;;;;5053408;28;45221;-85
2021/12/03 09:39:03;;;;;;;;;8.50;6.50;;;;;;;;5046115;28;44910;-86
2021/12/03 09:41:28;;;;;;;;;6.00;3.25;;;;;;;;5040287;28;45442;-86
2021/12/03 09:43:54;;;;;;;;;6.50;6.00;;;;;;;;5051378;28;45918;-87
2021/12/03 09:46:22;;;;;;;;;4.75;4.00;;;;;;;;5053012;28;45298;-86
2021/12/03 09:51:34;;;;;;;;;6.00;5.00;;;;;;;;5051390;28;44851;-86
2021/12/03 09:56:30;;;;;;;;;5.50;3.00;;;;;;;;5051833;28;45420;-86
2021/12/03 10:04:26;;;;;;;;;3.25;3.25;;;;;;;;5050462;28;46034;-87
2021/12/03 10:15:09;;;;;;;;;3.00;2.00;;;;;;;;5042058;28;45179;-86
2021/12/03 10:44:27;;;;;;;;;9.00;5.25;;;;;;;;5046115;28;45341;-86
2021/12/03 10:52:03;;;;;;;;;6.00;4.00;;;;;;;;5039568;28;45386;-85
2021/12/03 11:52:21;;;;;;;;;12.50;12.25;;;;;;;;4927237;28;46008;-83
2021/12/03 13:08:06;;;;;;;;;3.00;2.00;;;;;;;;4893448;28;46425;-74
2021/12/03 13:21:36;;;;;;;;;3.00;3.00;;;;;;;;4879502;29;45528;-76
2021/12/03 13:46:41;;;;;;;;;5.00;3.50;;;;;;;;4931052;28;45370;-76
2021/12/03 14:07:34;;;;;;;;;4.00;4.00;;;;;;;;4968468;28;45398;-75
2021/12/03 14:13:50;;;;;;;;;4.00;4.00;;;;;;;;4990950;28;45377;-76
2021/12/03 14:28:16;;;;;;;;;2.50;2.00;;;;;;;;4992528;28;45599;-74
2021/12/03 14:31:14;;;;;;;;;3.00;2.25;;;;;;;;4992571;28;45445;-79
2021/12/03 14:38:09;;;;;;;;;3.00;2.00;;;;;;;;4995075;28;45657;-79
2021/12/03 14:46:02;;;;;;;;;2.50;2.50;;;;;;;;5035507;28;45436;-76
2021/12/03 14:54:10;;;;;;;;;6.50;2.50;;;;;;;;4992370;28;45465;-77
2021/12/03 14:56:35;;;;;;;;;1.00;0.00;;;;;;;;4992481;28;46045;-78
2021/12/03 14:59:26;;;;;;;;;1.75;1.75;;;;;;;;4992075;28;45584;-77
2021/12/03 15:02:04;;;;;;;;;1.00;1.00;;;;;;;;4992202;28;45405;-78
2021/12/03 15:09:35;;;;;;;;;1.00;1.00;;;;;;;;4993606;28;45369;-79
2021/12/03 15:12:42;;;;;;;;;1.75;1.00;;;;;;;;4993671;28;45290;-81
2021/12/03 15:20:46;;;;;;;;;3.50;2.00;;;;;;;;4992993;28;45473;-79
2021/12/03 16:08:30;;;;;;;;;1.00;1.00;;;;;;;;5000528;28;45475;-77
2021/12/03 16:11:06;;;;;;;;;2.50;2.50;;;;;;;;5004644;28;46337;-78
2021/12/03 16:51:12;;;;;;;;;4.00;4.00;;;;;;;;5038415;28;45154;-78
2021/12/03 16:53:38;;;;;;;;;4.00;4.00;;;;;;;;5033461;28;46936;-80
2021/12/03 16:58:29;;;;;;;;;6.25;6.25;;;;;;;;5033404;28;45439;-76
2021/12/03 17:58:50;;;;;;;;;9.75;8.25;;;;;;;;5020518;28;45572;-79
2021/12/03 18:01:24;;;;;;;;;6.00;6.00;;;;;;;;5037017;28;45306;-79
2021/12/03 18:09:16;;;;;;;;;9.50;8.50;;;;;;;;5036687;28;45620;-79
2021/12/03 18:12:12;;;;;;;;;10.50;9.75;;;;;;;;5036990;28;45432;-79
2021/12/03 18:52:38;;;;;;;;;17.00;15.00;;;;;;;;5018832;28;45293;-76
2021/12/03 18:55:08;;;;;;;;;13.50;12.50;;;;;;;;5033479;28;45367;-76
2021/12/03 18:57:40;;;;;;;;;12.50;12.50;;;;;;;;5033879;28;45496;-75
2021/12/03 19:00:09;;;;;;;;;14.25;11.25;;;;;;;;5034308;28;47188;-75
2021/12/03 19:02:38;;;;;;;;;15.00;13.25;;;;;;;;5033807;28;45451;-75
2021/12/03 19:08:15;;;;;;;;;18.75;15.25;;;;;;;;4992091;28;45504;-75
2021/12/03 19:10:45;;;;;;;;;18.50;13.00;;;;;;;;4992309;28;46146;-76
2021/12/03 19:13:15;;;;;;;;;15.25;13.75;;;;;;;;4991900;28;45333;-76
2021/12/03 19:15:42;;;;;;;;;21.00;16.00;;;;;;;;4993406;28;45424;-76
2021/12/03 19:18:08;;;;;;;;;14.00;14.00;;;;;;;;4992810;28;45675;-77
2021/12/03 19:20:37;;;;;;;;;17.00;16.00;;;;;;;;4992010;28;45581;-78
2021/12/03 19:23:02;;;;;;;;;16.00;14.75;;;;;;;;4992582;28;45366;-77
2021/12/03 19:25:28;;;;;;;;;13.50;13.50;;;;;;;;4993080;28;45515;-76
2021/12/03 19:27:53;;;;;;;;;18.75;16.75;;;;;;;;4992379;28;45471;-78
2021/12/03 19:30:19;;;;;;;;;17.00;15.75;;;;;;;;4993081;28;46651;-77
2021/12/03 19:32:44;;;;;;;;;14.75;14.00;;;;;;;;4992018;28;45384;-76
2021/12/03 19:35:09;;;;;;;;;22.25;19.00;;;;;;;;4992287;28;45362;-78
2021/12/03 19:37:35;;;;;;;;;16.00;14.00;;;;;;;;4975806;28;45496;-74
2021/12/03 19:40:04;;;;;;;;;19.50;17.25;;;;;;;;4992592;28;46244;-75
2021/12/03 19:42:43;;;;;;;;;18.25;17.75;;;;;;;;4991850;28;45471;-74
2021/12/03 19:45:12;;;;;;;;;17.00;16.50;;;;;;;;5017143;28;45538;-76
2021/12/03 19:47:56;;;;;;;;;14.50;12.50;;;;;;;;5032766;28;46953;-75
2021/12/03 19:52:55;;;;;;;;;24.50;21.00;;;;;;;;5034051;28;45299;-75
2021/12/03 19:55:20;;;;;;;;;15.50;14.75;;;;;;;;5019042;28;45460;-74
2021/12/03 19:57:46;;;;;;;;;19.75;19.00;;;;;;;;5033918;28;45438;-75
2021/12/03 20:00:11;;;;;;;;;19.75;17.00;;;;;;;;5034049;28;45403;-74
2021/12/03 20:02:36;;;;;;;;;16.00;15.00;;;;;;;;5034341;28;45494;-74
2021/12/03 20:05:03;;;;;;;;;15.50;14.50;;;;;;;;5034236;28;45516;-74
2021/12/03 20:07:29;;;;;;;;;15.75;14.50;;;;;;;;5034452;28;45451;-73
2021/12/03 20:10:03;;;;;;;;;14.50;13.75;;;;;;;;5033839;28;45681;-74
2021/12/03 20:12:31;;;;;;;;;16.00;15.50;;;;;;;;5031294;28;45785;-77
2021/12/03 20:14:56;;;;;;;;;11.50;11.50;;;;;;;;5023087;28;45481;-75
2021/12/03 20:19:51;;;;;;;;;14.75;13.00;;;;;;;;5033296;28;45994;-74
2021/12/03 20:22:55;;;;;;;;;21.00;17.50;;;;;;;;5018335;28;45549;-75
2021/12/03 20:27:46;;;;;;;;;12.50;11.25;;;;;;;;5030617;28;45315;-76
2021/12/03 20:36:34;;;;;;;;;16.00;12.75;;;;;;;;5034132;28;45391;-72
2021/12/03 20:38:28;;;;;;;;;14.00;13.00;;;;;;;;5020662;28;45465;-74
2021/12/03 20:40:56;;;;;;;;;17.50;15.50;;;;;;;;5033484;28;47078;-71
2021/12/03 20:48:42;;;;;;;;;16.00;14.25;;;;;;;;5033769;28;45371;-74
2021/12/03 20:51:14;;;;;;;;;14.00;14.00;;;;;;;;5029664;28;47765;-76
2021/12/03 20:54:16;;;;;;;;;15.50;14.00;;;;;;;;5033464;28;45429;-75
2021/12/03 21:09:51;;;;;;;;;10.50;9.00;;;;;;;;5032124;28;45419;-75
2021/12/03 21:12:24;;;;;;;;;11.25;11.25;;;;;;;;5036997;28;45239;-75
2021/12/03 21:15:13;;;;;;;;;12.00;11.25;;;;;;;;5037045;28;45362;-77
2021/12/03 21:20:22;;;;;;;;;13.75;12.00;;;;;;;;5036758;28;45458;-75
2021/12/03 21:22:50;;;;;;;;;15.50;11.25;;;;;;;;5037128;28;47190;-75
2021/12/03 21:25:19;;;;;;;;;4.00;3.00;;;;;;;;5028482;28;45529;-77
2021/12/03 21:27:52;;;;;;;;;11.50;10.25;;;;;;;;5033387;28;45399;-75
2021/12/03 21:30:40;;;;;;;;;8.75;8.75;;;;;;;;5036691;28;45406;-74
2021/12/03 21:43:20;;;;;;;;;6.00;6.00;;;;;;;;5037170;28;46054;-72
2021/12/03 21:45:45;;;;;;;;;12.00;12.00;;;;;;;;5036336;28;45506;-74
2021/12/03 21:48:11;;;;;;;;;8.25;8.25;;;;;;;;5036542;28;45508;-74
2021/12/03 21:50:37;;;;;;;;;10.00;10.00;;;;;;;;5036465;28;45375;-78
2021/12/03 21:53:03;;;;;;;;;8.75;6.00;;;;;;;;5036780;28;46064;-78
2021/12/03 21:55:29;;;;;;;;;9.00;8.75;;;;;;;;5036455;28;45505;-78
2021/12/03 21:57:55;;;;;;;;;6.75;5.25;;;;;;;;5036969;28;45355;-80
2021/12/03 22:00:21;;;;;;;;;10.00;7.75;;;;;;;;5034642;28;45558;-75
2021/12/03 22:02:46;;;;;;;;;22.00;20.25;;;;;;;;5033737;28;45458;-74
2021/12/03 22:05:11;;;;;;;;;8.25;8.25;;;;;;;;5036402;28;45444;-76
2021/12/03 22:07:36;;;;;;;;;10.50;9.00;;;;;;;;5036523;28;45401;-75
2021/12/03 22:10:02;;;;;;;;;10.25;8.50;;;;;;;;5036646;28;45281;-74
2021/12/03 22:12:27;;;;;;;;;8.50;8.50;;;;;;;;5034688;28;47652;-73
2021/12/03 22:14:53;;;;;;;;;8.25;8.25;;;;;;;;5035861;28;45459;-74
2021/12/03 22:17:18;;;;;;;;;8.75;8.50;;;;;;;;5036411;28;45452;-74
2021/12/03 22:19:43;;;;;;;;;11.00;11.00;;;;;;;;5036098;28;45606;-78
2021/12/03 22:22:08;;;;;;;;;9.00;9.00;;;;;;;;5035522;28;47285;-75
2021/12/03 22:24:39;;;;;;;;;13.00;11.25;;;;;;;;5039405;28;45304;-75
2021/12/03 22:27:06;;;;;;;;;12.00;9.25;;;;;;;;5043058;28;45303;-78
2021/12/03 22:29:31;;;;;;;;;10.50;10.50;;;;;;;;5055262;28;45523;-77
2021/12/03 22:31:58;;;;;;;;;13.75;12.50;;;;;;;;5042150;28;46166;-78
2021/12/03 22:34:24;;;;;;;;;11.75;11.75;;;;;;;;5035747;28;45423;-74
2021/12/03 22:36:49;;;;;;;;;16.50;16.25;;;;;;;;5032535;28;45489;-73
2021/12/03 22:39:14;;;;;;;;;17.75;13.75;;;;;;;;5036025;28;45409;-74
2021/12/03 22:41:42;;;;;;;;;12.00;12.00;;;;;;;;5035216;28;46175;-72
2021/12/03 22:44:08;;;;;;;;;14.25;13.00;;;;;;;;5035403;28;45426;-74
2021/12/03 22:49:17;;;;;;;;;15.00;14.75;;;;;;;;5033400;28;45244;-74
2021/12/03 22:54:17;;;;;;;;;13.50;12.50;;;;;;;;5032516;28;45456;-73
2021/12/03 22:56:43;;;;;;;;;16.25;12.00;;;;;;;;5035533;28;45548;-73
2021/12/03 22:59:08;;;;;;;;;12.25;10.75;;;;;;;;5026792;28;45537;-73
2021/12/03 23:01:33;;;;;;;;;14.25;11.25;;;;;;;;5025173;28;45516;-73
2021/12/03 23:04:01;;;;;;;;;12.50;12.50;;;;;;;;5035312;28;45597;-73
2021/12/03 23:06:29;;;;;;;;;11.75;11.00;;;;;;;;5035437;28;45411;-73
2021/12/03 23:08:55;;;;;;;;;10.75;10.25;;;;;;;;5034747;28;47119;-73
2021/12/03 23:11:20;;;;;;;;;12.25;10.50;;;;;;;;5035296;28;46335;-76